sensor_id;sensor_type;location;lat;lon;timestamp;temperature;humidity
27707;DHT22;36332;51.384;0.040;2023-07-13T00:01:55;16.10;99.90
27707;DHT22;36332;51.384;0.040;2023-07-13T00:04:25;16.10;99.90
27707;DHT22;36332;51.384;0.040;2023-07-13T00:06:53;16.10;99.90
27707;DHT22;36332;51.384;0.040;2023-07-13T00:09:21;16.00;99.90
27707;DHT22;36332;51.384;0.040;2023-07-13T00:11:52;16.00;99.90
27707;DHT22;36332;51.384;0.040;2023-07-13T00:14:20;16.00;99.90
27707;DHT22;36332;51.384;0.040;2023-07-13T00:19:16;16.00;99.90
27707;DHT22;36332;51.384;0.040;2023-07-13T00:21:46;16.00;99.90
27707;DHT22;36332;51.384;0.040;2023-07-13T00:24:17;16.00;99.90
27707;DHT22;36332;51.384;0.040;2023-07-13T00:26:51;16.00;99.90
27707;DHT22;36332;51.384;0.040;2023-07-13T00:44:17;15.90;99.90
27707;DHT22;36332;51.384;0.040;2023-07-13T00:46:45;15.80;99.90
27707;DHT22;36332;51.384;0.040;2023-07-13T00:49:18;16.00;99.90
27707;DHT22;36332;51.384;0.040;2023-07-13T00:51:51;16.00;99.90
27707;DHT22;36332;51.384;0.040;2023-07-13T00:54:24;16.00;99.90
27707;DHT22;36332;51.384;0.040;2023-07-13T00:56:55;15.90;99.90
27707;DHT22;36332;51.384;0.040;2023-07-13T00:59:25;15.90;99.90
27707;DHT22;36332;51.384;0.040;2023-07-13T01:01:54;15.90;99.90
27707;DHT22;36332;51.384;0.040;2023-07-13T01:04:25;15.90;99.90
27707;DHT22;36332;51.384;0.040;2023-07-13T01:11:50;15.80;99.90
27707;DHT22;36332;51.384;0.040;2023-07-13T01:14:17;15.80;99.90
27707;DHT22;36332;51.384;0.040;2023-07-13T01:16:46;15.70;99.90
27707;DHT22;36332;51.384;0.040;2023-07-13T01:29:07;15.60;99.90
27707;DHT22;36332;51.384;0.040;2023-07-13T01:31:37;15.60;99.90
27707;DHT22;36332;51.384;0.040;2023-07-13T01:34:05;15.60;99.90
27707;DHT22;36332;51.384;0.040;2023-07-13T01:36:33;15.60;99.90
27707;DHT22;36332;51.384;0.040;2023-07-13T01:39:01;15.50;99.90
27707;DHT22;36332;51.384;0.040;2023-07-13T01:41:29;15.60;99.90
27707;DHT22;36332;51.384;0.040;2023-07-13T01:43:57;15.50;99.90
27707;DHT22;36332;51.384;0.040;2023-07-13T01:46:25;15.40;99.90
27707;DHT22;36332;51.384;0.040;2023-07-13T01:48:54;15.40;99.90
27707;DHT22;36332;51.384;0.040;2023-07-13T01:51:22;15.40;99.90
27707;DHT22;36332;51.384;0.040;2023-07-13T01:53:50;15.40;99.90
27707;DHT22;36332;51.384;0.040;2023-07-13T01:56:17;15.30;99.90
27707;DHT22;36332;51.384;0.040;2023-07-13T01:58:46;15.30;99.90
27707;DHT22;36332;51.384;0.040;2023-07-13T02:01:15;15.30;99.90
27707;DHT22;36332;51.384;0.040;2023-07-13T02:03:42;15.30;99.90
27707;DHT22;36332;51.384;0.040;2023-07-13T02:06:10;15.30;99.90
27707;DHT22;36332;51.384;0.040;2023-07-13T02:08:38;15.20;99.90
27707;DHT22;36332;51.384;0.040;2023-07-13T02:18:29;15.20;99.90
27707;DHT22;36332;51.384;0.040;2023-07-13T02:23:25;15.20;99.90
27707;DHT22;36332;51.384;0.040;2023-07-13T02:26:00;15.10;99.90
27707;DHT22;36332;51.384;0.040;2023-07-13T02:31:07;15.10;99.90
27707;DHT22;36332;51.384;0.040;2023-07-13T02:33:36;15.10;99.90
27707;DHT22;36332;51.384;0.040;2023-07-13T02:36:04;15.20;99.90
27707;DHT22;36332;51.384;0.040;2023-07-13T02:38:33;15.10;99.90
27707;DHT22;36332;51.384;0.040;2023-07-13T02:41:04;15.10;99.90
27707;DHT22;36332;51.384;0.040;2023-07-13T02:43:32;15.10;99.90
27707;DHT22;36332;51.384;0.040;2023-07-13T02:46:00;15.10;99.90
27707;DHT22;36332;51.384;0.040;2023-07-13T02:48:37;15.10;99.90
27707;DHT22;36332;51.384;0.040;2023-07-13T02:51:05;15.10;99.90
27707;DHT22;36332;51.384;0.040;2023-07-13T02:53:33;15.10;99.90
27707;DHT22;36332;51.384;0.040;2023-07-13T02:56:01;15.10;99.90
27707;DHT22;36332;51.384;0.040;2023-07-13T03:00:57;15.00;99.90
27707;DHT22;36332;51.384;0.040;2023-07-13T03:03:26;15.00;99.90
27707;DHT22;36332;51.384;0.040;2023-07-13T03:05:59;15.00;99.90
27707;DHT22;36332;51.384;0.040;2023-07-13T03:08:32;15.00;99.90
27707;DHT22;36332;51.384;0.040;2023-07-13T03:11:06;14.90;99.90
27707;DHT22;36332;51.384;0.040;2023-07-13T03:13:39;15.00;99.90
27707;DHT22;36332;51.384;0.040;2023-07-13T03:16:08;14.90;99.90
27707;DHT22;36332;51.384;0.040;2023-07-13T03:18:37;14.90;99.90
27707;DHT22;36332;51.384;0.040;2023-07-13T03:21:08;14.90;99.90
27707;DHT22;36332;51.384;0.040;2023-07-13T03:23:36;14.90;99.90
27707;DHT22;36332;51.384;0.040;2023-07-13T03:26:07;13.10;99.90
27707;DHT22;36332;51.384;0.040;2023-07-13T03:28:35;14.80;99.90
27707;DHT22;36332;51.384;0.040;2023-07-13T03:31:10;14.90;99.90
27707;DHT22;36332;51.384;0.040;2023-07-13T03:36:11;14.80;99.90
27707;DHT22;36332;51.384;0.040;2023-07-13T03:38:40;14.80;99.90
27707;DHT22;36332;51.384;0.040;2023-07-13T04:00:59;14.70;99.90
27707;DHT22;36332;51.384;0.040;2023-07-13T04:03:27;14.70;99.90
27707;DHT22;36332;51.384;0.040;2023-07-13T04:05:56;14.70;99.90
27707;DHT22;36332;51.384;0.040;2023-07-13T04:08:29;14.70;99.90
27707;DHT22;36332;51.384;0.040;2023-07-13T04:10:57;14.70;99.90
27707;DHT22;36332;51.384;0.040;2023-07-13T04:13:26;14.60;99.90
27707;DHT22;36332;51.384;0.040;2023-07-13T04:18:23;14.60;99.90
27707;DHT22;36332;51.384;0.040;2023-07-13T04:20:51;14.60;99.90
27707;DHT22;36332;51.384;0.040;2023-07-13T04:25:48;14.70;99.90
27707;DHT22;36332;51.384;0.040;2023-07-13T04:28:24;14.70;99.90
27707;DHT22;36332;51.384;0.040;2023-07-13T04:30:52;14.50;99.90
27707;DHT22;36332;51.384;0.040;2023-07-13T04:33:20;14.70;99.90
27707;DHT22;36332;51.384;0.040;2023-07-13T04:35:52;14.70;99.90
27707;DHT22;36332;51.384;0.040;2023-07-13T04:38:25;14.70;99.90
27707;DHT22;36332;51.384;0.040;2023-07-13T04:40:56;14.80;99.90
27707;DHT22;36332;51.384;0.040;2023-07-13T04:43:25;14.80;99.90
27707;DHT22;36332;51.384;0.040;2023-07-13T04:45:53;14.80;99.90
27707;DHT22;36332;51.384;0.040;2023-07-13T04:48:22;14.80;99.90
27707;DHT22;36332;51.384;0.040;2023-07-13T04:50:58;14.90;99.90
27707;DHT22;36332;51.384;0.040;2023-07-13T04:53:26;14.90;99.90
27707;DHT22;36332;51.384;0.040;2023-07-13T04:55:54;14.90;99.90
27707;DHT22;36332;51.384;0.040;2023-07-13T04:58:23;15.00;99.90
27707;DHT22;36332;51.384;0.040;2023-07-13T05:03:18;15.10;99.90
27707;DHT22;36332;51.384;0.040;2023-07-13T05:06:02;15.20;99.90
27707;DHT22;36332;51.384;0.040;2023-07-13T05:11:02;15.20;99.90
27707;DHT22;36332;51.384;0.040;2023-07-13T05:16:00;15.30;99.90
27707;DHT22;36332;51.384;0.040;2023-07-13T05:18:29;15.40;99.90
27707;DHT22;36332;51.384;0.040;2023-07-13T05:21:02;15.40;99.90
27707;DHT22;36332;51.384;0.040;2023-07-13T05:23:32;15.50;99.90
27707;DHT22;36332;51.384;0.040;2023-07-13T05:26:00;15.60;99.90
27707;DHT22;36332;51.384;0.040;2023-07-13T05:28:29;15.60;99.90
27707;DHT22;36332;51.384;0.040;2023-07-13T05:30:58;15.70;99.90
27707;DHT22;36332;51.384;0.040;2023-07-13T05:33:26;15.70;99.90
27707;DHT22;36332;51.384;0.040;2023-07-13T05:35:53;15.80;99.90
27707;DHT22;36332;51.384;0.040;2023-07-13T05:38:21;15.70;99.90
27707;DHT22;36332;51.384;0.040;2023-07-13T05:40:50;15.80;99.90
27707;DHT22;36332;51.384;0.040;2023-07-13T05:43:18;15.80;99.90
27707;DHT22;36332;51.384;0.040;2023-07-13T05:48:14;16.00;99.90
27707;DHT22;36332;51.384;0.040;2023-07-13T05:50:41;16.10;99.90
27707;DHT22;36332;51.384;0.040;2023-07-13T05:53:09;16.10;99.90
27707;DHT22;36332;51.384;0.040;2023-07-13T05:55:44;16.20;99.90
27707;DHT22;36332;51.384;0.040;2023-07-13T05:58:16;16.20;99.90
27707;DHT22;36332;51.384;0.040;2023-07-13T06:00:44;16.30;99.90
27707;DHT22;36332;51.384;0.040;2023-07-13T06:03:12;16.40;99.90
27707;DHT22;36332;51.384;0.040;2023-07-13T06:05:40;16.40;99.90
27707;DHT22;36332;51.384;0.040;2023-07-13T06:08:09;16.50;99.90
27707;DHT22;36332;51.384;0.040;2023-07-13T06:10:37;16.50;99.90
27707;DHT22;36332;51.384;0.040;2023-07-13T06:13:04;16.60;99.90
27707;DHT22;36332;51.384;0.040;2023-07-13T06:15:32;16.70;99.90
27707;DHT22;36332;51.384;0.040;2023-07-13T06:18:00;16.70;99.90
27707;DHT22;36332;51.384;0.040;2023-07-13T06:20:29;16.80;99.90
27707;DHT22;36332;51.384;0.040;2023-07-13T06:22:57;17.00;99.90
27707;DHT22;36332;51.384;0.040;2023-07-13T06:25:26;17.10;99.90
27707;DHT22;36332;51.384;0.040;2023-07-13T06:27:54;17.10;99.90
27707;DHT22;36332;51.384;0.040;2023-07-13T06:30:21;17.30;99.90
27707;DHT22;36332;51.384;0.040;2023-07-13T06:32:49;17.50;99.90
27707;DHT22;36332;51.384;0.040;2023-07-13T06:35:17;17.60;99.90
27707;DHT22;36332;51.384;0.040;2023-07-13T06:37:44;17.70;99.90
27707;DHT22;36332;51.384;0.040;2023-07-13T06:40:12;17.80;99.90
27707;DHT22;36332;51.384;0.040;2023-07-13T06:42:40;17.80;99.90
27707;DHT22;36332;51.384;0.040;2023-07-13T06:45:08;17.80;99.90
27707;DHT22;36332;51.384;0.040;2023-07-13T06:50:04;17.70;99.90
27707;DHT22;36332;51.384;0.040;2023-07-13T06:52:32;17.70;99.90
27707;DHT22;36332;51.384;0.040;2023-07-13T06:54:59;20.30;99.90
27707;DHT22;36332;51.384;0.040;2023-07-13T06:57:27;17.70;99.90
27707;DHT22;36332;51.384;0.040;2023-07-13T06:59:54;17.60;99.90
27707;DHT22;36332;51.384;0.040;2023-07-13T07:02:22;17.60;99.90
27707;DHT22;36332;51.384;0.040;2023-07-13T07:04:50;17.60;99.90
27707;DHT22;36332;51.384;0.040;2023-07-13T07:07:17;17.60;99.90
27707;DHT22;36332;51.384;0.040;2023-07-13T07:09:45;17.60;99.90
27707;DHT22;36332;51.384;0.040;2023-07-13T07:12:12;17.70;99.90
27707;DHT22;36332;51.384;0.040;2023-07-13T07:14:41;18.40;99.90
27707;DHT22;36332;51.384;0.040;2023-07-13T07:17:09;17.90;99.90
27707;DHT22;36332;51.384;0.040;2023-07-13T07:19:37;17.90;99.90
27707;DHT22;36332;51.384;0.040;2023-07-13T07:22:05;18.10;99.90
27707;DHT22;36332;51.384;0.040;2023-07-13T07:24:33;18.30;99.90
27707;DHT22;36332;51.384;0.040;2023-07-13T07:27:00;18.50;99.90
27707;DHT22;36332;51.384;0.040;2023-07-13T07:32:02;18.60;99.90
27707;DHT22;36332;51.384;0.040;2023-07-13T07:34:50;18.70;99.90
27707;DHT22;36332;51.384;0.040;2023-07-13T07:37:18;18.80;99.90
27707;DHT22;36332;51.384;0.040;2023-07-13T07:39:48;18.80;99.90
27707;DHT22;36332;51.384;0.040;2023-07-13T07:42:36;18.90;99.90
27707;DHT22;36332;51.384;0.040;2023-07-13T07:45:03;19.00;99.90
27707;DHT22;36332;51.384;0.040;2023-07-13T07:47:31;19.00;99.90
27707;DHT22;36332;51.384;0.040;2023-07-13T07:49:59;19.10;99.90
27707;DHT22;36332;51.384;0.040;2023-07-13T07:52:26;19.30;99.90
27707;DHT22;36332;51.384;0.040;2023-07-13T07:54:54;19.40;99.90
27707;DHT22;36332;51.384;0.040;2023-07-13T07:57:42;19.50;99.90
27707;DHT22;36332;51.384;0.040;2023-07-13T08:00:13;19.60;99.90
27707;DHT22;36332;51.384;0.040;2023-07-13T08:02:44;19.70;99.90
27707;DHT22;36332;51.384;0.040;2023-07-13T08:05:14;19.70;99.90
27707;DHT22;36332;51.384;0.040;2023-07-13T08:07:45;19.70;99.90
27707;DHT22;36332;51.384;0.040;2023-07-13T08:10:12;19.60;99.90
27707;DHT22;36332;51.384;0.040;2023-07-13T08:12:40;19.60;99.90
27707;DHT22;36332;51.384;0.040;2023-07-13T08:15:13;19.50;99.90
27707;DHT22;36332;51.384;0.040;2023-07-13T08:17:41;19.50;99.90
27707;DHT22;36332;51.384;0.040;2023-07-13T08:20:09;19.50;99.90
27707;DHT22;36332;51.384;0.040;2023-07-13T08:22:36;19.50;99.90
27707;DHT22;36332;51.384;0.040;2023-07-13T08:25:04;19.50;99.90
27707;DHT22;36332;51.384;0.040;2023-07-13T08:27:33;19.40;99.90
27707;DHT22;36332;51.384;0.040;2023-07-13T08:30:00;19.50;99.90
27707;DHT22;36332;51.384;0.040;2023-07-13T08:32:28;19.30;99.90
27707;DHT22;36332;51.384;0.040;2023-07-13T08:34:56;19.30;99.90
27707;DHT22;36332;51.384;0.040;2023-07-13T08:37:24;19.30;99.90
27707;DHT22;36332;51.384;0.040;2023-07-13T08:39:51;19.40;99.90
27707;DHT22;36332;51.384;0.040;2023-07-13T08:42:54;19.40;99.90
27707;DHT22;36332;51.384;0.040;2023-07-13T08:45:38;19.50;99.90
27707;DHT22;36332;51.384;0.040;2023-07-13T08:48:23;19.60;99.90
27707;DHT22;36332;51.384;0.040;2023-07-13T08:53:36;20.00;99.90
27707;DHT22;36332;51.384;0.040;2023-07-13T08:56:09;20.10;99.90
27707;DHT22;36332;51.384;0.040;2023-07-13T08:58:39;20.20;99.90
27707;DHT22;36332;51.384;0.040;2023-07-13T09:03:48;20.30;99.90
27707;DHT22;36332;51.384;0.040;2023-07-13T09:06:20;20.40;99.90
27707;DHT22;36332;51.384;0.040;2023-07-13T09:09:03;20.50;99.90
27707;DHT22;36332;51.384;0.040;2023-07-13T09:11:46;20.70;99.90
27707;DHT22;36332;51.384;0.040;2023-07-13T09:17:12;20.70;99.90
27707;DHT22;36332;51.384;0.040;2023-07-13T09:19:41;20.80;99.90
27707;DHT22;36332;51.384;0.040;2023-07-13T09:22:14;21.00;99.90
27707;DHT22;36332;51.384;0.040;2023-07-13T09:24:53;21.00;99.90
27707;DHT22;36332;51.384;0.040;2023-07-13T09:27:26;21.10;99.90
27707;DHT22;36332;51.384;0.040;2023-07-13T09:30:21;21.30;99.90
27707;DHT22;36332;51.384;0.040;2023-07-13T09:32:53;21.30;99.90
27707;DHT22;36332;51.384;0.040;2023-07-13T09:35:24;21.20;99.90
27707;DHT22;36332;51.384;0.040;2023-07-13T09:38:03;21.30;99.90
27707;DHT22;36332;51.384;0.040;2023-07-13T09:41:00;21.40;99.90
27707;DHT22;36332;51.384;0.040;2023-07-13T09:43:30;21.50;99.90
27707;DHT22;36332;51.384;0.040;2023-07-13T09:45:57;21.70;99.90
27707;DHT22;36332;51.384;0.040;2023-07-13T09:48:25;21.80;99.90
27707;DHT22;36332;51.384;0.040;2023-07-13T09:50:57;22.30;99.90
27707;DHT22;36332;51.384;0.040;2023-07-13T09:53:31;22.30;99.90
27707;DHT22;36332;51.384;0.040;2023-07-13T09:55:58;22.50;99.90
27707;DHT22;36332;51.384;0.040;2023-07-13T09:58:29;22.60;99.90
27707;DHT22;36332;51.384;0.040;2023-07-13T10:01:01;22.80;99.90
27707;DHT22;36332;51.384;0.040;2023-07-13T10:03:34;22.90;99.90
27707;DHT22;36332;51.384;0.040;2023-07-13T10:06:16;23.00;99.90
27707;DHT22;36332;51.384;0.040;2023-07-13T10:08:49;23.10;99.90
27707;DHT22;36332;51.384;0.040;2023-07-13T10:11:23;23.10;99.90
27707;DHT22;36332;51.384;0.040;2023-07-13T10:14:01;23.20;99.90
27707;DHT22;36332;51.384;0.040;2023-07-13T10:16:31;23.20;99.90
27707;DHT22;36332;51.384;0.040;2023-07-13T10:19:18;23.20;99.90
27707;DHT22;36332;51.384;0.040;2023-07-13T10:21:58;23.20;99.90
27707;DHT22;36332;51.384;0.040;2023-07-13T10:24:33;23.20;99.90
27707;DHT22;36332;51.384;0.040;2023-07-13T10:27:12;23.10;99.90
27707;DHT22;36332;51.384;0.040;2023-07-13T10:32:13;23.10;99.90
27707;DHT22;36332;51.384;0.040;2023-07-13T10:34:46;23.00;99.90
27707;DHT22;36332;51.384;0.040;2023-07-13T10:37:24;23.00;99.90
27707;DHT22;36332;51.384;0.040;2023-07-13T10:39:55;22.90;99.90
27707;DHT22;36332;51.384;0.040;2023-07-13T10:42:37;22.90;99.90
27707;DHT22;36332;51.384;0.040;2023-07-13T10:45:20;23.00;99.90
27707;DHT22;36332;51.384;0.040;2023-07-13T10:47:50;22.90;99.90
27707;DHT22;36332;51.384;0.040;2023-07-13T10:50:22;22.90;99.90
27707;DHT22;36332;51.384;0.040;2023-07-13T10:52:54;22.80;99.90
27707;DHT22;36332;51.384;0.040;2023-07-13T10:55:40;22.60;99.90
27707;DHT22;36332;51.384;0.040;2023-07-13T10:58:19;22.40;99.90
27707;DHT22;36332;51.384;0.040;2023-07-13T11:01:08;22.20;99.90
27707;DHT22;36332;51.384;0.040;2023-07-13T11:03:47;21.70;99.90
27707;DHT22;36332;51.384;0.040;2023-07-13T11:11:49;21.60;99.90
27707;DHT22;36332;51.384;0.040;2023-07-13T11:14:34;21.80;99.90
27707;DHT22;36332;51.384;0.040;2023-07-13T11:22:53;24.10;99.90
27707;DHT22;36332;51.384;0.040;2023-07-13T11:25:35;22.90;99.90
27707;DHT22;36332;51.384;0.040;2023-07-13T11:33:25;23.60;99.90
27707;DHT22;36332;51.384;0.040;2023-07-13T11:36:07;23.60;99.90
27707;DHT22;36332;51.384;0.040;2023-07-13T11:38:43;23.70;99.90
27707;DHT22;36332;51.384;0.040;2023-07-13T11:43:45;24.00;99.90
27707;DHT22;36332;51.384;0.040;2023-07-13T11:48:49;24.10;99.90
27707;DHT22;36332;51.384;0.040;2023-07-13T11:51:29;24.10;99.90
27707;DHT22;36332;51.384;0.040;2023-07-13T11:54:10;24.10;99.90
27707;DHT22;36332;51.384;0.040;2023-07-13T11:56:41;24.00;99.90
27707;DHT22;36332;51.384;0.040;2023-07-13T11:59:13;24.00;99.90
27707;DHT22;36332;51.384;0.040;2023-07-13T12:01:52;24.00;99.90
27707;DHT22;36332;51.384;0.040;2023-07-13T12:04:30;24.00;99.90
27707;DHT22;36332;51.384;0.040;2023-07-13T12:07:15;24.00;99.90
27707;DHT22;36332;51.384;0.040;2023-07-13T12:09:44;24.20;99.90
27707;DHT22;36332;51.384;0.040;2023-07-13T12:12:14;23.90;99.90
27707;DHT22;36332;51.384;0.040;2023-07-13T12:14:44;23.70;99.90
27707;DHT22;36332;51.384;0.040;2023-07-13T12:17:23;23.50;99.90
27707;DHT22;36332;51.384;0.040;2023-07-13T12:19:52;23.40;99.90
27707;DHT22;36332;51.384;0.040;2023-07-13T12:22:20;23.00;99.90
27707;DHT22;36332;51.384;0.040;2023-07-13T12:24:51;22.50;99.90
27707;DHT22;36332;51.384;0.040;2023-07-13T12:27:20;21.40;99.90
27707;DHT22;36332;51.384;0.040;2023-07-13T12:29:59;21.40;99.90
27707;DHT22;36332;51.384;0.040;2023-07-13T12:32:27;21.00;99.90
27707;DHT22;36332;51.384;0.040;2023-07-13T12:35:14;20.50;99.90
27707;DHT22;36332;51.384;0.040;2023-07-13T12:37:43;20.50;99.90
27707;DHT22;36332;51.384;0.040;2023-07-13T12:40:19;20.60;99.90
27707;DHT22;36332;51.384;0.040;2023-07-13T12:42:51;20.60;99.90
27707;DHT22;36332;51.384;0.040;2023-07-13T12:45:22;21.00;99.90
27707;DHT22;36332;51.384;0.040;2023-07-13T12:47:55;21.10;99.90
27707;DHT22;36332;51.384;0.040;2023-07-13T12:50:27;21.30;99.90
27707;DHT22;36332;51.384;0.040;2023-07-13T12:53:04;21.50;99.90
27707;DHT22;36332;51.384;0.040;2023-07-13T12:55:47;21.70;99.90
27707;DHT22;36332;51.384;0.040;2023-07-13T13:00:59;22.30;99.90
27707;DHT22;36332;51.384;0.040;2023-07-13T13:03:32;22.70;99.90
27707;DHT22;36332;51.384;0.040;2023-07-13T13:08:48;23.20;99.90
27707;DHT22;36332;51.384;0.040;2023-07-13T13:11:21;23.40;99.90
27707;DHT22;36332;51.384;0.040;2023-07-13T13:13:49;23.40;99.90
27707;DHT22;36332;51.384;0.040;2023-07-13T13:16:31;23.30;99.90
27707;DHT22;36332;51.384;0.040;2023-07-13T13:19:17;23.10;99.90
27707;DHT22;36332;51.384;0.040;2023-07-13T13:21:46;22.70;99.90
27707;DHT22;36332;51.384;0.040;2023-07-13T13:24:16;22.40;99.90
27707;DHT22;36332;51.384;0.040;2023-07-13T13:26:45;22.40;99.90
27707;DHT22;36332;51.384;0.040;2023-07-13T13:29:16;22.30;99.90
27707;DHT22;36332;51.384;0.040;2023-07-13T13:31:44;22.30;99.90
27707;DHT22;36332;51.384;0.040;2023-07-13T13:34:17;22.40;99.90
27707;DHT22;36332;51.384;0.040;2023-07-13T13:36:46;22.40;99.90
27707;DHT22;36332;51.384;0.040;2023-07-13T13:39:35;22.60;99.90
27707;DHT22;36332;51.384;0.040;2023-07-13T13:42:04;22.80;99.90
27707;DHT22;36332;51.384;0.040;2023-07-13T13:44:32;23.20;99.90
27707;DHT22;36332;51.384;0.040;2023-07-13T13:47:00;23.40;99.90
27707;DHT22;36332;51.384;0.040;2023-07-13T13:49:29;23.60;99.90
27707;DHT22;36332;51.384;0.040;2023-07-13T13:51:57;24.00;99.90
27707;DHT22;36332;51.384;0.040;2023-07-13T13:54:25;24.50;99.90
27707;DHT22;36332;51.384;0.040;2023-07-13T13:56:53;24.90;99.90
27707;DHT22;36332;51.384;0.040;2023-07-13T13:59:21;24.90;99.90
27707;DHT22;36332;51.384;0.040;2023-07-13T14:01:49;24.80;99.90
27707;DHT22;36332;51.384;0.040;2023-07-13T14:04:21;24.50;99.90
27707;DHT22;36332;51.384;0.040;2023-07-13T14:06:49;24.40;99.90
27707;DHT22;36332;51.384;0.040;2023-07-13T14:09:18;24.30;99.90
27707;DHT22;36332;51.384;0.040;2023-07-13T14:11:48;24.20;99.90
27707;DHT22;36332;51.384;0.040;2023-07-13T14:14:21;24.10;99.90
27707;DHT22;36332;51.384;0.040;2023-07-13T14:16:50;24.10;99.90
27707;DHT22;36332;51.384;0.040;2023-07-13T14:19:22;24.00;99.90
27707;DHT22;36332;51.384;0.040;2023-07-13T14:21:50;23.70;99.90
27707;DHT22;36332;51.384;0.040;2023-07-13T14:26:48;23.60;99.90
27707;DHT22;36332;51.384;0.040;2023-07-13T14:29:18;23.70;99.90
27707;DHT22;36332;51.384;0.040;2023-07-13T14:31:52;23.70;99.90
27707;DHT22;36332;51.384;0.040;2023-07-13T14:34:20;23.90;99.90
27707;DHT22;36332;51.384;0.040;2023-07-13T14:36:49;23.90;99.90
27707;DHT22;36332;51.384;0.040;2023-07-13T14:39:20;23.90;99.90
27707;DHT22;36332;51.384;0.040;2023-07-13T14:41:53;24.00;99.90
27707;DHT22;36332;51.384;0.040;2023-07-13T14:44:25;24.20;99.90
27707;DHT22;36332;51.384;0.040;2023-07-13T14:46:53;24.30;99.90
27707;DHT22;36332;51.384;0.040;2023-07-13T14:49:33;24.50;99.90
27707;DHT22;36332;51.384;0.040;2023-07-13T14:52:10;24.70;99.90
27707;DHT22;36332;51.384;0.040;2023-07-13T14:54:38;25.30;99.90
27707;DHT22;36332;51.384;0.040;2023-07-13T14:57:12;25.40;99.90
27707;DHT22;36332;51.384;0.040;2023-07-13T14:59:41;25.80;99.90
27707;DHT22;36332;51.384;0.040;2023-07-13T15:02:17;25.90;99.90
27707;DHT22;36332;51.384;0.040;2023-07-13T15:04:46;25.80;99.90
27707;DHT22;36332;51.384;0.040;2023-07-13T15:07:13;26.20;99.90
27707;DHT22;36332;51.384;0.040;2023-07-13T15:09:43;26.70;99.90
27707;DHT22;36332;51.384;0.040;2023-07-13T15:12:10;27.00;99.90
27707;DHT22;36332;51.384;0.040;2023-07-13T15:14:38;27.20;99.90
27707;DHT22;36332;51.384;0.040;2023-07-13T15:17:31;27.10;99.90
27707;DHT22;36332;51.384;0.040;2023-07-13T15:20:28;26.80;99.90
27707;DHT22;36332;51.384;0.040;2023-07-13T15:22:56;26.30;99.90
27707;DHT22;36332;51.384;0.040;2023-07-13T15:25:26;26.40;99.90
27707;DHT22;36332;51.384;0.040;2023-07-13T15:27:56;27.00;99.90
27707;DHT22;36332;51.384;0.040;2023-07-13T15:30:27;27.00;99.90
27707;DHT22;36332;51.384;0.040;2023-07-13T15:32:58;27.30;99.90
27707;DHT22;36332;51.384;0.040;2023-07-13T15:35:29;27.70;99.90
27707;DHT22;36332;51.384;0.040;2023-07-13T15:37:57;28.10;99.90
27707;DHT22;36332;51.384;0.040;2023-07-13T15:40:25;28.30;99.90
27707;DHT22;36332;51.384;0.040;2023-07-13T15:42:52;28.20;99.90
27707;DHT22;36332;51.384;0.040;2023-07-13T15:45:22;27.80;99.90
27707;DHT22;36332;51.384;0.040;2023-07-13T15:47:51;27.80;99.90
27707;DHT22;36332;51.384;0.040;2023-07-13T15:50:22;27.80;99.90
27707;DHT22;36332;51.384;0.040;2023-07-13T15:52:54;27.80;99.90
27707;DHT22;36332;51.384;0.040;2023-07-13T15:55:22;27.90;99.90
27707;DHT22;36332;51.384;0.040;2023-07-13T15:57:52;28.10;99.90
27707;DHT22;36332;51.384;0.040;2023-07-13T16:00:25;28.40;99.90
27707;DHT22;36332;51.384;0.040;2023-07-13T16:02:53;28.70;99.90
27707;DHT22;36332;51.384;0.040;2023-07-13T16:05:23;28.90;99.90
27707;DHT22;36332;51.384;0.040;2023-07-13T16:07:52;29.00;98.30
27707;DHT22;36332;51.384;0.040;2023-07-13T16:10:24;29.10;99.90
27707;DHT22;36332;51.384;0.040;2023-07-13T16:12:54;29.40;99.90
27707;DHT22;36332;51.384;0.040;2023-07-13T16:15:22;29.30;99.10
27707;DHT22;36332;51.384;0.040;2023-07-13T16:17:50;29.40;99.10
27707;DHT22;36332;51.384;0.040;2023-07-13T16:20:19;29.60;99.30
27707;DHT22;36332;51.384;0.040;2023-07-13T16:22:53;29.60;97.20
27707;DHT22;36332;51.384;0.040;2023-07-13T16:25:23;29.80;97.30
27707;DHT22;36332;51.384;0.040;2023-07-13T16:27:54;29.80;98.30
27707;DHT22;36332;51.384;0.040;2023-07-13T16:30:30;30.00;97.20
27707;DHT22;36332;51.384;0.040;2023-07-13T16:33:03;29.50;96.80
27707;DHT22;36332;51.384;0.040;2023-07-13T16:35:38;29.10;96.50
27707;DHT22;36332;51.384;0.040;2023-07-13T16:38:20;28.30;96.30
27707;DHT22;36332;51.384;0.040;2023-07-13T16:40:49;27.80;97.10
27707;DHT22;36332;51.384;0.040;2023-07-13T16:43:19;27.30;97.90
27707;DHT22;36332;51.384;0.040;2023-07-13T16:45:50;26.20;98.80
27707;DHT22;36332;51.384;0.040;2023-07-13T16:48:21;26.00;99.20
27707;DHT22;36332;51.384;0.040;2023-07-13T16:50:54;25.30;99.40
27707;DHT22;36332;51.384;0.040;2023-07-13T16:53:27;24.80;99.90
27707;DHT22;36332;51.384;0.040;2023-07-13T16:56:01;24.50;99.90
27707;DHT22;36332;51.384;0.040;2023-07-13T16:58:33;23.90;99.90
27707;DHT22;36332;51.384;0.040;2023-07-13T17:01:01;23.90;99.90
27707;DHT22;36332;51.384;0.040;2023-07-13T17:03:31;23.70;99.90
27707;DHT22;36332;51.384;0.040;2023-07-13T17:06:12;23.50;99.90
27707;DHT22;36332;51.384;0.040;2023-07-13T17:08:46;23.40;99.90
27707;DHT22;36332;51.384;0.040;2023-07-13T17:11:13;23.20;99.90
27707;DHT22;36332;51.384;0.040;2023-07-13T17:13:43;23.10;99.90
27707;DHT22;36332;51.384;0.040;2023-07-13T17:16:11;22.90;99.90
27707;DHT22;36332;51.384;0.040;2023-07-13T17:18:39;22.90;99.90
27707;DHT22;36332;51.384;0.040;2023-07-13T17:21:12;22.80;99.90
27707;DHT22;36332;51.384;0.040;2023-07-13T17:23:43;22.80;99.90
27707;DHT22;36332;51.384;0.040;2023-07-13T17:26:11;22.60;99.90
27707;DHT22;36332;51.384;0.040;2023-07-13T17:28:40;22.60;99.90
27707;DHT22;36332;51.384;0.040;2023-07-13T17:31:17;22.60;99.90
27707;DHT22;36332;51.384;0.040;2023-07-13T17:33:46;22.60;99.90
27707;DHT22;36332;51.384;0.040;2023-07-13T17:36:15;22.70;99.90
27707;DHT22;36332;51.384;0.040;2023-07-13T17:38:46;22.70;99.90
27707;DHT22;36332;51.384;0.040;2023-07-13T17:41:18;22.80;99.90
27707;DHT22;36332;51.384;0.040;2023-07-13T17:43:46;22.90;99.90
27707;DHT22;36332;51.384;0.040;2023-07-13T17:46:19;22.90;99.90
27707;DHT22;36332;51.384;0.040;2023-07-13T17:48:49;23.00;99.90
27707;DHT22;36332;51.384;0.040;2023-07-13T17:51:19;23.00;99.90
27707;DHT22;36332;51.384;0.040;2023-07-13T17:53:50;23.00;99.90
27707;DHT22;36332;51.384;0.040;2023-07-13T17:56:18;22.80;99.90
27707;DHT22;36332;51.384;0.040;2023-07-13T17:58:46;22.80;99.90
27707;DHT22;36332;51.384;0.040;2023-07-13T18:01:19;22.70;99.90
27707;DHT22;36332;51.384;0.040;2023-07-13T18:03:50;22.40;99.90
27707;DHT22;36332;51.384;0.040;2023-07-13T18:06:28;22.30;99.90